Jamestown, Pennsylvania
Current Conditions -  °F | °C
As of 10:53 PM on Sunday 25 Jan 2015 (Local Time) from KGKJ Reporting Station
Overcast Overcast  
Wind Chill:   Ceiling: 4800
Heat Index: 18°   Visibility: 10mi
Dew Point: 12°   Wind: 9mph
Humidity: 78%   Direction: 40°NE
Pressure: 29.84"   Gusts: NA
Location:  41.48°N, 80.44°W
Report Text: KGKJ 260353Z AUTO 04008KT 10SM OVC048 M08/M11 A2984 RMK AO2 SLP123 T10781111 TSNO
Loading
Personal Weather Stations






























Interactive Weather Map New forecast layout! Learn more

10-Day Weather Forecast

Advertisements
Track Severe Weather on mobile